createdAt,value
2023-04-19T00:01:28.447Z,79.49
2023-04-19T00:03:56.957Z,77.17
2023-04-19T00:06:24.645Z,76.94
2023-04-19T00:08:51.280Z,76.62
2023-04-19T00:11:17.851Z,76.34
2023-04-19T00:13:44.393Z,76.34
2023-04-19T00:16:11.002Z,76.34
2023-04-19T00:18:38.728Z,75.28
2023-04-19T00:21:05.885Z,75.36
2023-04-19T00:23:32.453Z,74.70
2023-04-19T00:25:59.065Z,73.30
2023-04-19T00:28:26.144Z,73.28
2023-04-19T00:30:52.823Z,72.57
2023-04-19T00:33:19.428Z,73.55
2023-04-19T00:35:46.027Z,75.50
2023-04-19T00:38:13.540Z,75.42
2023-04-19T00:40:40.218Z,75.51
2023-04-19T00:43:06.828Z,75.94
2023-04-19T00:45:35.839Z,76.63
2023-04-19T00:48:02.802Z,77.08
2023-04-19T00:50:29.805Z,78.14
2023-04-19T00:52:57.757Z,78.39
2023-04-19T00:55:25.571Z,78.26
2023-04-19T00:57:52.316Z,79.30
2023-04-19T01:00:19.925Z,79.24
2023-04-19T01:02:47.991Z,79.46
2023-04-19T01:05:15.052Z,79.95
2023-04-19T01:07:42.957Z,79.73
2023-04-19T01:10:10.022Z,79.52
2023-04-19T01:12:36.927Z,79.45
2023-04-19T01:15:04.106Z,79.96
2023-04-19T01:17:33.040Z,79.07
2023-04-19T01:20:03.932Z,78.96
2023-04-19T01:22:32.001Z,78.50
2023-04-19T01:24:58.917Z,78.78
2023-04-19T01:27:25.700Z,78.84
2023-04-19T01:29:52.338Z,78.20
2023-04-19T01:32:18.996Z,77.60
2023-04-19T01:34:45.607Z,77.62
2023-04-19T01:37:12.236Z,77.38
2023-04-19T01:39:41.400Z,77.76
2023-04-19T01:42:07.955Z,77.34
2023-04-19T01:44:36.530Z,77.53
2023-04-19T01:47:04.644Z,78.05
2023-04-19T01:49:32.597Z,78.88
2023-04-19T01:51:59.176Z,78.76
2023-04-19T01:54:27.025Z,78.46
2023-04-19T01:56:53.591Z,78.48
2023-04-19T01:59:20.397Z,77.52
2023-04-19T02:01:47.367Z,77.43
2023-04-19T02:04:14.312Z,77.10
2023-04-19T02:06:41.132Z,75.24
2023-04-19T02:09:08.327Z,75.19
2023-04-19T02:11:34.895Z,73.83
2023-04-19T02:14:01.597Z,73.17
2023-04-19T02:16:28.270Z,72.81
2023-04-19T02:18:54.950Z,72.52
2023-04-19T02:21:21.579Z,71.95
2023-04-19T02:23:48.364Z,71.79
2023-04-19T02:26:15.361Z,71.77
2023-04-19T02:28:43.226Z,71.32
2023-04-19T02:31:09.885Z,72.70
2023-04-19T02:33:36.593Z,71.97
2023-04-19T02:36:03.816Z,70.71
2023-04-19T02:38:30.534Z,70.89
2023-04-19T02:40:57.243Z,70.14
2023-04-19T02:43:23.963Z,69.23
2023-04-19T02:45:51.329Z,66.80
2023-04-19T02:48:17.906Z,67.20
2023-04-19T02:50:44.698Z,64.73
2023-04-19T02:53:11.471Z,64.25
2023-04-19T02:55:38.832Z,64.34
2023-04-19T02:58:10.458Z,64.08
2023-04-19T03:00:43.230Z,62.65
2023-04-19T03:03:14.627Z,60.45
2023-04-19T03:05:41.390Z,60.13
2023-04-19T03:08:08.023Z,59.13
2023-04-19T03:10:34.848Z,58.81
2023-04-19T03:13:02.032Z,57.85
2023-04-19T03:15:29.756Z,57.60
2023-04-19T03:17:56.422Z,56.64
2023-04-19T03:20:23.113Z,55.49
2023-04-19T03:22:50.084Z,54.80
2023-04-19T03:25:17.611Z,54.47
2023-04-19T03:27:49.632Z,54.47
2023-04-19T03:30:20.004Z,53.89
2023-04-19T03:32:47.965Z,53.66
2023-04-19T03:35:15.082Z,53.42
2023-04-19T03:37:41.662Z,53.54
2023-04-19T03:40:13.971Z,54.10
2023-04-19T03:42:40.611Z,52.82
2023-04-19T03:45:14.571Z,53.30
2023-04-19T03:47:46.337Z,53.42
2023-04-19T03:50:13.210Z,53.28
2023-04-19T03:52:42.327Z,52.81
2023-04-19T03:55:12.558Z,53.52
2023-04-19T03:57:40.927Z,53.36
2023-04-19T04:00:33.311Z,53.89
2023-04-19T04:03:01.013Z,54.07
2023-04-19T04:05:28.726Z,54.08
2023-04-19T04:07:56.415Z,54.23
2023-04-19T04:10:23.445Z,54.56
2023-04-19T04:12:50.876Z,55.05
2023-04-19T04:15:24.122Z,54.68
2023-04-19T04:17:53.162Z,55.02
2023-04-19T04:20:20.635Z,54.86
2023-04-19T04:22:47.627Z,55.17
2023-04-19T04:25:17.250Z,55.43
2023-04-19T04:27:45.119Z,55.00
2023-04-19T04:30:16.238Z,54.45
2023-04-19T04:32:45.047Z,54.45
2023-04-19T04:35:12.529Z,54.01
2023-04-19T04:37:48.818Z,54.36
2023-04-19T04:40:16.277Z,54.63
2023-04-19T04:42:42.993Z,54.39
2023-04-19T04:45:10.832Z,54.78
2023-04-19T04:47:39.017Z,54.74
2023-04-19T04:50:07.479Z,54.41
2023-04-19T04:52:34.252Z,54.64
2023-04-19T04:55:09.423Z,55.03
2023-04-19T04:57:41.112Z,55.52
2023-04-19T05:00:12.673Z,56.02
2023-04-19T05:02:47.399Z,56.88
2023-04-19T05:05:14.172Z,56.46
2023-04-19T05:07:41.084Z,56.91
2023-04-19T05:10:08.348Z,56.66
2023-04-19T05:12:43.208Z,57.79
2023-04-19T05:15:11.968Z,58.17
2023-04-19T05:17:43.136Z,58.49
2023-04-19T05:20:10.738Z,58.47
2023-04-19T05:22:38.408Z,59.21
2023-04-19T05:25:09.896Z,59.97
2023-04-19T05:27:37.257Z,60.13
2023-04-19T05:30:06.632Z,60.46
2023-04-19T05:32:35.341Z,60.50
2023-04-19T05:35:04.308Z,59.96
2023-04-19T05:37:31.072Z,60.58
2023-04-19T05:39:58.283Z,61.04
2023-04-19T05:42:25.556Z,60.86
2023-04-19T05:44:52.244Z,61.99
2023-04-19T05:47:19.321Z,61.56
2023-04-19T05:50:06.767Z,61.79
2023-04-19T05:52:40.714Z,60.72
2023-04-19T05:55:08.355Z,61.11
2023-04-19T05:57:40.101Z,60.54
2023-04-19T06:00:09.460Z,60.49
2023-04-19T06:02:59.293Z,60.36
2023-04-19T06:05:26.851Z,61.00
2023-04-19T06:10:31.330Z,61.60
2023-04-19T06:13:04.206Z,60.83
2023-04-19T06:15:30.966Z,60.63
2023-04-19T06:17:59.334Z,60.40
2023-04-19T06:20:26.439Z,60.93
2023-04-19T06:22:52.982Z,60.82
2023-04-19T06:25:19.620Z,60.56
2023-04-19T06:27:46.237Z,60.45
2023-04-19T06:30:14.864Z,61.48
2023-04-19T06:32:41.595Z,61.23
2023-04-19T06:35:08.529Z,61.38
2023-04-19T06:37:35.397Z,61.00
2023-04-19T06:40:02.714Z,61.29
2023-04-19T06:42:29.550Z,62.87
2023-04-19T06:44:57.236Z,61.88
2023-04-19T06:47:23.914Z,61.88
2023-04-19T06:49:50.514Z,60.61
2023-04-19T06:52:17.167Z,60.83
2023-04-19T06:54:49.195Z,61.63
2023-04-19T06:57:16.800Z,61.00
2023-04-19T06:59:43.639Z,60.63
2023-04-19T07:02:10.786Z,60.22
2023-04-19T07:04:37.869Z,60.31
2023-04-19T07:07:04.564Z,60.54
2023-04-19T07:09:31.139Z,59.31
2023-04-19T07:11:57.714Z,58.56
2023-04-19T07:14:24.274Z,59.16
2023-04-19T07:16:51.682Z,58.56
2023-04-19T07:19:20.600Z,59.32
2023-04-19T07:21:47.191Z,58.62
2023-04-19T07:24:14.109Z,58.32
2023-04-19T07:26:40.847Z,58.43
2023-04-19T07:29:07.442Z,59.26
2023-04-19T07:31:34.192Z,58.63
2023-04-19T07:34:00.819Z,58.15
2023-04-19T07:36:27.767Z,57.84
2023-04-19T07:38:54.643Z,58.12
2023-04-19T07:41:21.263Z,58.77
2023-04-19T07:43:47.829Z,57.69
2023-04-19T07:46:16.412Z,57.83
2023-04-19T07:48:43.134Z,58.56
2023-04-19T07:51:14.408Z,58.01
2023-04-19T07:53:41.826Z,57.63
2023-04-19T07:56:10.950Z,57.46
2023-04-19T07:58:42.273Z,57.48
2023-04-19T08:01:09.697Z,57.51
2023-04-19T08:03:37.659Z,57.39
2023-04-19T08:06:07.440Z,56.39
2023-04-19T08:08:34.302Z,56.08
2023-04-19T08:11:02.426Z,55.75
2023-04-19T08:13:29.773Z,56.30
2023-04-19T08:18:26.781Z,55.66
2023-04-19T08:20:53.869Z,55.09
2023-04-19T08:23:24.453Z,54.71
2023-04-19T08:25:52.672Z,54.98
2023-04-19T08:28:19.536Z,55.16
2023-04-19T08:30:46.204Z,54.49
2023-04-19T08:33:12.875Z,52.95
2023-04-19T08:35:41.382Z,52.87
2023-04-19T08:38:08.827Z,51.89
2023-04-19T08:40:35.724Z,50.50
2023-04-19T08:43:06.906Z,50.16
2023-04-19T08:45:34.401Z,49.99
2023-04-19T08:48:02.735Z,48.37
2023-04-19T08:50:36.157Z,49.43
2023-04-19T08:56:03.529Z,49.71
2023-04-19T08:58:52.016Z,49.88
2023-04-19T09:01:34.022Z,49.29
2023-04-19T09:04:26.228Z,48.05
2023-04-19T09:06:53.046Z,47.69
2023-04-19T09:11:51.834Z,46.42
2023-04-19T09:14:19.853Z,46.54
2023-04-19T09:16:47.400Z,46.00
2023-04-19T09:19:23.517Z,45.87
2023-04-19T09:21:53.144Z,46.72
2023-04-19T09:24:19.761Z,45.51
2023-04-19T09:26:54.847Z,45.66
2023-04-19T09:29:21.549Z,45.23
2023-04-19T09:31:58.393Z,46.01
2023-04-19T09:34:25.147Z,45.38
2023-04-19T09:36:57.620Z,46.25
2023-04-19T09:39:37.914Z,46.04
2023-04-19T09:42:04.502Z,46.80
2023-04-19T09:45:01.785Z,46.00
2023-04-19T09:47:25.153Z,45.52
2023-04-19T09:50:21.929Z,44.71
2023-04-19T09:52:50.310Z,43.25
2023-04-19T09:55:26.774Z,44.65
2023-04-19T09:57:53.950Z,44.14
2023-04-19T10:00:21.794Z,43.77
2023-04-19T10:02:55.807Z,44.56
2023-04-19T10:05:24.544Z,44.36
2023-04-19T10:07:54.908Z,44.07
2023-04-19T10:10:40.816Z,43.35
2023-04-19T10:13:19.624Z,42.53
2023-04-19T10:15:52.477Z,43.37
2023-04-19T10:18:20.610Z,43.09
2023-04-19T10:20:58.378Z,42.94
2023-04-19T10:23:25.210Z,42.26
2023-04-19T10:25:57.513Z,42.64
2023-04-19T10:28:24.107Z,39.67
2023-04-19T10:30:57.384Z,38.84
2023-04-19T10:33:28.873Z,40.49
2023-04-19T10:35:57.726Z,38.98
2023-04-19T10:38:36.969Z,38.58
2023-04-19T10:41:04.450Z,38.70
2023-04-19T10:43:34.208Z,38.46
2023-04-19T10:46:07.996Z,38.03
2023-04-19T10:48:39.521Z,37.46
2023-04-19T10:51:11.802Z,37.45
2023-04-19T10:53:49.192Z,37.75
2023-04-19T10:56:17.832Z,38.30
2023-04-19T10:59:03.124Z,37.48
2023-04-19T11:01:43.591Z,38.95
2023-04-19T11:04:17.391Z,37.16
2023-04-19T11:06:53.357Z,36.67
2023-04-19T11:09:30.353Z,37.94
2023-04-19T11:12:11.027Z,37.29
2023-04-19T11:14:41.267Z,36.51
2023-04-19T11:17:34.091Z,36.38
2023-04-19T11:20:02.964Z,36.42
2023-04-19T11:22:41.020Z,36.02
2023-04-19T11:25:18.987Z,36.77
2023-04-19T11:27:47.836Z,36.95
2023-04-19T11:30:20.628Z,35.98
2023-04-19T11:32:52.498Z,36.05
2023-04-19T11:35:23.510Z,35.45
2023-04-19T11:37:50.636Z,36.16
2023-04-19T11:40:21.946Z,35.81
2023-04-19T11:42:54.880Z,35.02
2023-04-19T11:45:40.373Z,34.91
2023-04-19T11:48:14.003Z,34.99
2023-04-19T11:50:42.149Z,35.86
2023-04-19T11:53:18.008Z,35.73
2023-04-19T11:55:46.334Z,35.81
2023-04-19T11:58:57.697Z,35.05
2023-04-19T12:01:25.936Z,34.94
2023-04-19T12:03:55.219Z,36.70
2023-04-19T12:06:21.835Z,36.46
2023-04-19T12:08:53.291Z,34.34
2023-04-19T12:11:24.378Z,35.29
2023-04-19T12:14:14.080Z,36.99
2023-04-19T12:16:41.311Z,35.45
2023-04-19T12:19:17.492Z,35.56
2023-04-19T12:21:45.375Z,35.27
2023-04-19T12:24:14.926Z,36.21
2023-04-19T12:26:57.911Z,35.61
2023-04-19T12:29:27.105Z,36.03
2023-04-19T12:31:53.807Z,35.19
2023-04-19T12:34:20.904Z,35.63
2023-04-19T12:36:47.478Z,36.02
2023-04-19T12:39:14.331Z,37.48
2023-04-19T12:41:41.034Z,36.68
2023-04-19T12:44:07.677Z,36.18
2023-04-19T12:46:34.316Z,36.40
2023-04-19T12:49:01.140Z,35.77
2023-04-19T12:51:27.982Z,36.57
2023-04-19T12:53:54.564Z,35.47
2023-04-19T12:56:21.386Z,35.72
2023-04-19T12:58:48.011Z,34.89
2023-04-19T13:01:14.605Z,35.04
2023-04-19T13:03:41.433Z,34.16
2023-04-19T13:06:08.129Z,33.76
2023-04-19T13:08:44.936Z,33.60
2023-04-19T13:11:13.625Z,34.55
2023-04-19T13:13:40.216Z,33.74
2023-04-19T13:16:07.983Z,34.92
2023-04-19T13:18:35.082Z,35.09
2023-04-19T13:21:01.749Z,35.19
2023-04-19T13:23:28.472Z,34.73
2023-04-19T13:25:55.027Z,35.16
2023-04-19T13:28:21.585Z,34.24
2023-04-19T13:30:48.270Z,32.42
2023-04-19T13:33:15.206Z,33.17
2023-04-19T13:35:41.787Z,32.88
2023-04-19T13:38:08.384Z,32.49
2023-04-19T13:40:35.005Z,32.63
2023-04-19T13:43:01.644Z,32.30
2023-04-19T13:45:28.215Z,32.03
2023-04-19T13:47:54.886Z,32.05
2023-04-19T13:50:21.626Z,31.82
2023-04-19T13:52:48.482Z,31.54
2023-04-19T13:55:15.116Z,32.34
2023-04-19T13:57:45.469Z,31.61
2023-04-19T14:00:12.595Z,32.21
2023-04-19T14:02:39.536Z,32.52
2023-04-19T14:05:06.830Z,31.97
2023-04-19T14:07:33.849Z,32.33
2023-04-19T14:10:00.782Z,31.96
2023-04-19T14:12:27.479Z,32.16
2023-04-19T14:14:54.013Z,32.19
2023-04-19T14:17:20.698Z,32.19
2023-04-19T14:19:47.284Z,32.75
2023-04-19T14:22:18.706Z,32.59
2023-04-19T14:24:46.335Z,32.48
2023-04-19T14:27:12.986Z,32.83
2023-04-19T14:29:39.822Z,32.61
2023-04-19T14:32:23.544Z,32.27
2023-04-19T14:34:51.930Z,32.30
2023-04-19T14:37:19.623Z,32.13
2023-04-19T14:39:46.540Z,32.42
2023-04-19T14:42:13.622Z,32.48
2023-04-19T14:44:40.894Z,32.57
2023-04-19T14:47:07.868Z,32.16
2023-04-19T14:49:34.486Z,32.21
2023-04-19T14:52:01.090Z,31.71
2023-04-19T14:54:27.813Z,31.07
2023-04-19T14:56:54.441Z,31.76
2023-04-19T14:59:21.482Z,31.59
2023-04-19T15:01:48.264Z,32.02
2023-04-19T15:04:15.017Z,31.46
2023-04-19T15:06:41.877Z,32.02
2023-04-19T15:09:08.554Z,31.28
2023-04-19T15:11:35.259Z,32.63
2023-04-19T15:14:02.363Z,32.06
2023-04-19T15:16:29.104Z,32.91
2023-04-19T15:18:55.832Z,33.26
2023-04-19T15:21:24.623Z,33.20
2023-04-19T15:23:51.481Z,33.54
2023-04-19T15:26:18.129Z,32.95
2023-04-19T15:28:44.713Z,34.27
2023-04-19T15:31:11.492Z,33.39
2023-04-19T15:33:38.406Z,33.19
2023-04-19T15:36:05.583Z,33.35
2023-04-19T15:38:32.862Z,33.26
2023-04-19T15:41:00.940Z,32.71
2023-04-19T15:43:27.612Z,33.21
2023-04-19T15:45:54.447Z,33.29
2023-04-19T15:48:21.254Z,33.55
2023-04-19T15:50:47.875Z,34.25
2023-04-19T15:53:15.025Z,34.15
2023-04-19T15:55:41.755Z,34.50
2023-04-19T15:58:08.340Z,34.55
2023-04-19T16:00:34.934Z,34.37
2023-04-19T16:03:01.683Z,34.31
2023-04-19T16:05:28.659Z,34.94
2023-04-19T16:08:03.589Z,35.08
2023-04-19T16:10:30.515Z,34.84
2023-04-19T16:12:57.283Z,35.23
2023-04-19T16:15:24.307Z,35.15
2023-04-19T16:17:52.260Z,35.72
2023-04-19T16:20:19.305Z,35.79
2023-04-19T16:22:46.176Z,35.60
2023-04-19T16:25:14.184Z,35.30
2023-04-19T16:27:43.215Z,36.15
2023-04-19T16:30:11.393Z,36.19
2023-04-19T16:32:38.165Z,36.37
2023-04-19T16:35:05.797Z,36.58
2023-04-19T16:37:33.104Z,36.96
2023-04-19T16:40:03.893Z,37.09
2023-04-19T16:42:30.586Z,36.88
2023-04-19T16:44:57.195Z,37.29
2023-04-19T16:47:23.756Z,37.35
2023-04-19T16:49:50.639Z,37.39
2023-04-19T16:52:17.537Z,37.64
2023-04-19T16:54:44.807Z,37.85
2023-04-19T16:57:11.616Z,38.25
2023-04-19T16:59:38.195Z,39.08
2023-04-19T17:02:06.422Z,39.03
2023-04-19T17:04:33.585Z,38.54
2023-04-19T17:07:00.967Z,39.01
2023-04-19T17:09:27.773Z,38.93
2023-04-19T17:11:56.434Z,39.62
2023-04-19T17:14:23.833Z,39.43
2023-04-19T17:16:50.814Z,39.65
2023-04-19T17:19:17.739Z,39.38
2023-04-19T17:21:44.642Z,39.37
2023-04-19T17:24:11.270Z,39.45
2023-04-19T17:26:37.921Z,39.25
2023-04-19T17:29:05.037Z,39.14
2023-04-19T17:31:31.825Z,39.19
2023-04-19T17:33:58.674Z,38.93
2023-04-19T17:36:25.210Z,38.72
2023-04-19T17:38:51.811Z,38.83
2023-04-19T17:41:18.437Z,38.61
2023-04-19T17:43:46.130Z,39.13
2023-04-19T17:46:13.588Z,39.56
2023-04-19T17:48:40.859Z,39.66
2023-04-19T17:51:07.930Z,39.59
2023-04-19T17:53:34.678Z,39.94
2023-04-19T17:56:01.764Z,40.00
2023-04-19T17:58:28.330Z,39.73
2023-04-19T18:00:55.125Z,39.75
2023-04-19T18:03:21.958Z,39.64
2023-04-19T18:05:49.374Z,39.65
2023-04-19T18:08:15.968Z,40.16
2023-04-19T18:10:42.611Z,39.49
2023-04-19T18:13:09.217Z,40.34
2023-04-19T18:15:36.198Z,40.59
2023-04-19T18:18:03.134Z,40.76
2023-04-19T18:20:29.935Z,40.61
2023-04-19T18:22:59.187Z,40.76
2023-04-19T18:25:25.870Z,41.06
2023-04-19T18:27:52.398Z,41.31
2023-04-19T18:30:18.968Z,41.41
2023-04-19T18:32:46.606Z,41.46
2023-04-19T18:35:13.600Z,41.55
2023-04-19T18:37:40.237Z,41.54
2023-04-19T18:40:07.591Z,41.92
2023-04-19T18:42:34.233Z,41.70
2023-04-19T18:45:00.867Z,42.42
2023-04-19T18:47:27.688Z,42.33
2023-04-19T18:50:04.398Z,42.33
2023-04-19T18:52:33.160Z,42.64
2023-04-19T18:54:59.861Z,42.96
2023-04-19T18:57:27.356Z,43.06
2023-04-19T18:59:56.480Z,43.01
2023-04-19T19:02:23.325Z,43.15
2023-04-19T19:04:56.901Z,43.33
2023-04-19T19:07:36.419Z,43.76
2023-04-19T19:10:17.258Z,43.94
2023-04-19T19:12:45.834Z,43.90
2023-04-19T19:15:16.705Z,43.99
2023-04-19T19:17:43.778Z,43.99
2023-04-19T19:20:12.580Z,44.08
2023-04-19T19:22:39.938Z,44.56
2023-04-19T19:25:07.226Z,44.57
2023-04-19T19:27:33.874Z,44.28
2023-04-19T19:30:01.204Z,44.24
2023-04-19T19:32:28.313Z,44.44
2023-04-19T19:34:58.947Z,45.24
2023-04-19T19:37:28.658Z,45.03
2023-04-19T19:39:56.904Z,45.40
2023-04-19T19:42:23.921Z,45.46
2023-04-19T19:44:55.285Z,45.03
2023-04-19T19:47:23.917Z,44.54
2023-04-19T19:50:33.681Z,44.28
2023-04-19T19:52:38.508Z,44.17
2023-04-19T19:55:05.997Z,43.85
2023-04-19T20:02:54.282Z,43.25
2023-04-19T20:05:23.497Z,42.95
2023-04-19T20:08:00.608Z,42.89
2023-04-19T20:10:28.034Z,42.99
2023-04-19T20:12:56.930Z,42.73
2023-04-19T20:15:23.495Z,42.29
2023-04-19T20:17:50.367Z,41.90
2023-04-19T20:20:17.095Z,42.48
2023-04-19T20:22:43.656Z,42.01
2023-04-19T20:25:11.122Z,42.09
2023-04-19T20:27:40.196Z,41.65
2023-04-19T20:30:08.724Z,41.79
2023-04-19T20:32:42.273Z,41.88
2023-04-19T20:35:12.438Z,42.23
2023-04-19T20:37:39.891Z,41.63
2023-04-19T20:40:12.110Z,41.61
2023-04-19T20:42:39.130Z,41.71
2023-04-19T20:45:07.570Z,42.02
2023-04-19T20:47:34.296Z,41.62
2023-04-19T20:50:01.039Z,41.99
2023-04-19T20:52:27.620Z,42.20
2023-04-19T20:54:56.228Z,41.66
2023-04-19T20:57:22.910Z,42.25
2023-04-19T20:59:50.025Z,41.92
2023-04-19T21:02:16.874Z,42.40
2023-04-19T21:04:43.524Z,41.90
2023-04-19T21:07:10.197Z,42.36
2023-04-19T21:09:38.103Z,41.88
2023-04-19T21:12:04.852Z,42.10
2023-04-19T21:14:33.550Z,42.08
2023-04-19T21:17:01.910Z,41.92
2023-04-19T21:19:28.689Z,41.94
2023-04-19T21:21:55.779Z,42.04
2023-04-19T21:24:22.360Z,41.88
2023-04-19T21:26:49.186Z,41.98
2023-04-19T21:29:16.053Z,42.31
2023-04-19T21:31:42.960Z,42.21
2023-04-19T21:34:09.577Z,42.62
2023-04-19T21:36:36.172Z,42.62
2023-04-19T21:39:04.040Z,43.59
2023-04-19T21:41:30.762Z,43.26
2023-04-19T21:43:57.314Z,43.29
2023-04-19T21:46:24.147Z,43.49
2023-04-19T21:48:51.186Z,44.38
2023-04-19T21:51:18.729Z,43.65
2023-04-19T21:53:45.417Z,43.95
2023-04-19T21:56:12.127Z,43.72
2023-04-19T21:58:38.769Z,43.44
2023-04-19T22:01:05.516Z,43.68
2023-04-19T22:03:32.772Z,43.20
2023-04-19T22:06:01.796Z,43.31
2023-04-19T22:08:30.048Z,43.86
2023-04-19T22:11:00.142Z,44.17
2023-04-19T22:13:28.194Z,46.67
2023-04-19T22:15:57.045Z,48.20
2023-04-19T22:18:23.940Z,48.31
2023-04-19T22:20:52.129Z,48.20
2023-04-19T22:23:19.045Z,49.26
2023-04-19T22:25:45.991Z,48.73
2023-04-19T22:28:13.047Z,48.66
2023-04-19T22:30:39.674Z,50.08
2023-04-19T22:33:06.597Z,50.57
2023-04-19T22:35:33.246Z,49.97
2023-04-19T22:37:59.836Z,49.83
2023-04-19T22:40:26.428Z,49.70
2023-04-19T22:42:53.031Z,49.85
2023-04-19T22:45:19.611Z,49.14
2023-04-19T22:47:46.346Z,48.95
2023-04-19T22:50:13.095Z,48.35
2023-04-19T22:52:40.972Z,48.91
2023-04-19T22:55:07.869Z,48.49
2023-04-19T22:57:34.510Z,47.72
2023-04-19T23:00:01.089Z,47.92
2023-04-19T23:02:27.710Z,47.64
2023-04-19T23:05:47.754Z,46.14
2023-04-19T23:08:15.116Z,46.31
2023-04-19T23:10:42.269Z,45.79
2023-04-19T23:13:10.386Z,45.73
2023-04-19T23:15:38.173Z,46.04
2023-04-19T23:18:05.282Z,46.28
2023-04-19T23:20:32.056Z,45.75
2023-04-19T23:22:59.178Z,46.41
2023-04-19T23:25:26.020Z,46.83
2023-04-19T23:27:52.658Z,47.26
2023-04-19T23:30:19.502Z,46.94
2023-04-19T23:32:46.253Z,47.38
2023-04-19T23:35:12.909Z,47.23
2023-04-19T23:37:40.890Z,47.54
2023-04-19T23:40:09.042Z,47.45
2023-04-19T23:42:37.666Z,48.60
2023-04-19T23:45:05.818Z,48.29
2023-04-19T23:47:32.608Z,48.38
2023-04-19T23:49:59.565Z,48.68
2023-04-19T23:52:27.387Z,48.93
2023-04-19T23:54:53.949Z,48.44
2023-04-19T23:57:20.719Z,48.22
2023-04-19T23:59:47.350Z,48.67
